Time;durP1;ratioP1;P1;durP2;ratioP2;P2;SDS_P1;SDS_P2;PMS_P1;PMS_P2;Temp;Humidity;BMP_temperature;BMP_pressure;BME280_temperature;BME280_humidity;BME280_pressure;Samples;Min_cycle;Max_cycle;Signal;HPM_P1;HPM_P2
2022/08/18 00:00:59;0.00;0.00;0.62;0.00;0.00;0.62;7.10;6.50;;;28.50;38.60;;;;;;2256940;61;20398;-62
2022/08/18 00:03:45;0.00;0.00;0.62;0.00;0.00;0.62;7.73;7.03;;;28.50;38.50;;;;;;2256989;61;20394;-64
2022/08/18 00:06:32;0.00;0.00;0.62;0.00;0.00;0.62;7.13;6.60;;;28.50;38.50;;;;;;2256921;61;20362;-61
2022/08/18 00:09:17;0.00;0.00;0.62;0.00;0.00;0.62;5.90;5.40;;;28.50;38.40;;;;;;2257633;61;20366;-61
2022/08/18 00:12:05;0.00;0.00;0.62;0.00;0.00;0.62;6.77;6.07;;;28.50;38.30;;;;;;2257119;61;20406;-61
2022/08/18 00:14:55;0.00;0.00;0.62;0.00;0.00;0.62;6.10;5.60;;;28.50;38.40;;;;;;2256807;61;20462;-62
2022/08/18 00:17:41;0.00;0.00;0.62;0.00;0.00;0.62;6.97;6.37;;;28.50;38.40;;;;;;2257789;61;20359;-66
2022/08/18 00:20:27;0.00;0.00;0.62;0.00;0.00;0.62;6.90;6.30;;;28.50;38.40;;;;;;2257288;61;20417;-65
2022/08/18 00:23:13;0.00;0.00;0.62;0.00;0.00;0.62;6.80;5.70;;;28.50;38.40;;;;;;2256955;61;20787;-64
2022/08/18 00:25:59;0.00;0.00;0.62;0.00;0.00;0.62;6.97;5.83;;;28.50;38.40;;;;;;2257381;61;20367;-63
2022/08/18 00:28:43;0.00;0.00;0.62;0.00;0.00;0.62;5.63;5.13;;;28.50;38.40;;;;;;2256965;61;20767;-63
2022/08/18 00:31:30;0.00;0.00;0.62;0.00;0.00;0.62;7.57;6.87;;;28.50;38.40;;;;;;2257569;61;20366;-64
2022/08/18 00:34:15;0.00;0.00;0.62;0.00;0.00;0.62;7.47;6.77;;;28.50;38.30;;;;;;2256914;61;20762;-63
2022/08/18 00:36:59;0.00;0.00;0.62;0.00;0.00;0.62;6.73;5.60;;;28.50;38.30;;;;;;2256838;61;20434;-64
2022/08/18 00:39:45;0.00;0.00;0.62;0.00;0.00;0.62;6.93;6.23;;;28.60;38.40;;;;;;2257508;61;20389;-65
2022/08/18 00:42:30;0.00;0.00;0.62;0.00;0.00;0.62;6.37;5.87;;;28.60;38.40;;;;;;2257322;61;20433;-64
2022/08/18 00:45:20;0.00;0.00;0.62;0.00;0.00;0.62;6.33;5.47;;;28.60;38.30;;;;;;2256856;61;20402;-65
2022/08/18 00:48:09;0.00;0.00;0.62;0.00;0.00;0.62;6.23;5.73;;;28.60;38.30;;;;;;2257370;61;20363;-65
2022/08/18 00:50:58;0.00;0.00;0.62;0.00;0.00;0.62;5.50;5.00;;;28.60;38.30;;;;;;2256953;61;20406;-65
2022/08/18 00:53:49;0.00;0.00;0.62;0.00;0.00;0.62;5.87;5.37;;;28.70;38.30;;;;;;2257284;61;20383;-65
2022/08/18 00:56:40;0.00;0.00;0.62;0.00;0.00;0.62;8.07;5.93;;;28.70;38.20;;;;;;2257147;61;20367;-65
2022/08/18 00:59:31;0.00;0.00;0.62;0.00;0.00;0.62;5.80;5.23;;;28.70;38.20;;;;;;2256786;61;20453;-64
2022/08/18 01:02:25;0.00;0.00;0.62;0.00;0.00;0.62;5.60;5.10;;;28.70;38.10;;;;;;2257335;61;20417;-64
2022/08/18 01:05:15;0.00;0.00;0.62;0.00;0.00;0.62;5.73;5.13;;;28.80;38.10;;;;;;2257254;61;20572;-65
2022/08/18 01:08:00;0.00;0.00;0.62;0.00;0.00;0.62;5.20;4.80;;;28.80;38.00;;;;;;2256764;61;20624;-65
2022/08/18 01:10:45;0.00;0.00;0.62;0.00;0.00;0.62;5.13;4.73;;;28.90;38.00;;;;;;2257264;61;20375;-64
2022/08/18 01:13:34;0.00;0.00;0.62;0.00;0.00;0.62;5.60;5.03;;;28.90;37.90;;;;;;2256657;61;20411;-62
2022/08/18 01:22:37;0.00;0.00;0.62;0.00;0.00;0.62;5.37;4.80;;;29.00;37.80;;;;;;2256660;61;20790;-64
2022/08/18 01:28:48;0.00;0.00;0.62;0.00;0.00;0.62;5.63;4.93;;;29.10;37.80;;;;;;2247968;61;20776;-62
2022/08/18 01:31:36;0.00;0.00;0.62;0.00;0.00;0.62;6.00;5.40;;;29.10;37.80;;;;;;2248584;61;20372;-66
2022/08/18 01:34:25;0.00;0.00;0.62;0.00;0.00;0.62;6.87;6.20;;;29.20;37.90;;;;;;2256161;61;20366;-65
2022/08/18 01:37:09;0.00;0.00;0.62;0.00;0.00;0.62;6.07;5.57;;;29.20;37.80;;;;;;2256951;61;20363;-61
2022/08/18 01:39:54;0.00;0.00;0.62;0.00;0.00;0.62;7.60;5.73;;;29.20;37.70;;;;;;2257604;61;20452;-66
2022/08/18 01:42:44;0.00;0.00;0.62;0.00;0.00;0.62;5.87;5.37;;;29.20;37.70;;;;;;2256845;61;20385;-65
2022/08/18 01:45:32;0.00;0.00;0.62;0.00;0.00;0.62;5.73;5.23;;;29.30;37.70;;;;;;2257428;61;20386;-62
2022/08/18 01:48:17;0.00;0.00;0.62;0.00;0.00;0.62;5.07;4.57;;;29.30;37.70;;;;;;2257156;61;20715;-66
2022/08/18 01:51:04;0.00;0.00;0.62;0.00;0.00;0.62;6.53;5.93;;;29.30;37.60;;;;;;2256762;61;20375;-64
2022/08/18 01:53:49;0.00;0.00;0.62;0.00;0.00;0.62;8.03;7.00;;;29.40;37.70;;;;;;2257552;61;20381;-64
2022/08/18 01:56:35;0.00;0.00;0.62;0.00;0.00;0.62;8.40;7.70;;;29.40;37.70;;;;;;2257809;61;20434;-63
2022/08/18 01:59:21;0.00;0.00;0.62;0.00;0.00;0.62;8.17;7.37;;;29.40;37.70;;;;;;2257589;61;20366;-64
2022/08/18 02:02:06;0.00;0.00;0.62;0.00;0.00;0.62;9.57;8.70;;;29.50;37.70;;;;;;2258296;61;20486;-63
2022/08/18 02:04:54;0.00;0.00;0.62;0.00;0.00;0.62;9.37;8.50;;;29.50;37.70;;;;;;2258332;61;20652;-64
2022/08/18 02:07:39;0.00;0.00;0.62;0.00;0.00;0.62;11.10;10.10;;;29.50;37.60;;;;;;2259629;61;20382;-64
2022/08/18 02:10:24;0.00;0.00;0.62;0.00;0.00;0.62;10.03;9.20;;;29.50;37.60;;;;;;2258855;61;20410;-66
2022/08/18 02:13:09;0.00;0.00;0.62;0.00;0.00;0.62;11.60;10.30;;;29.40;37.50;;;;;;2257716;61;20405;-66
2022/08/18 02:15:55;0.00;0.00;0.62;0.00;0.00;0.62;11.67;10.60;;;29.40;37.60;;;;;;2258434;61;20402;-63
2022/08/18 02:18:41;0.00;0.00;0.62;0.00;0.00;0.62;10.87;9.70;;;29.40;37.70;;;;;;2258131;61;20374;-63
2022/08/18 02:21:26;0.00;0.00;0.62;0.00;0.00;0.62;10.93;9.87;;;29.40;37.70;;;;;;2257870;61;20731;-63
2022/08/18 02:24:10;0.00;0.00;0.62;0.00;0.00;0.62;8.40;7.70;;;29.40;37.70;;;;;;2258292;61;20487;-65
2022/08/18 02:26:56;0.00;0.00;0.62;0.00;0.00;0.62;8.83;8.03;;;29.40;37.70;;;;;;2257912;61;20636;-66
2022/08/18 02:29:41;0.00;0.00;0.62;0.00;0.00;0.62;9.60;8.80;;;29.40;37.70;;;;;;2257675;61;20382;-63
2022/08/18 02:32:28;0.00;0.00;0.62;0.00;0.00;0.62;11.97;10.97;;;29.40;37.70;;;;;;2257541;61;20490;-64
2022/08/18 02:35:13;0.00;0.00;0.62;0.00;0.00;0.62;9.63;8.80;;;29.40;37.80;;;;;;2257262;61;20366;-62
2022/08/18 02:37:59;0.00;0.00;0.62;0.00;0.00;0.62;8.10;7.50;;;29.40;37.80;;;;;;2258082;61;20605;-62
2022/08/18 02:40:45;0.00;0.00;0.62;0.00;0.00;0.62;11.57;10.47;;;29.40;37.70;;;;;;2257626;61;20520;-66
2022/08/18 02:43:30;0.00;0.00;0.62;0.00;0.00;0.62;13.77;12.47;;;29.40;37.70;;;;;;2257281;61;20377;-65
2022/08/18 02:46:15;0.00;0.00;0.62;0.00;0.00;0.62;10.17;9.27;;;29.40;37.70;;;;;;2257868;61;20474;-65
2022/08/18 02:49:02;0.00;0.00;0.62;0.00;0.00;0.62;9.83;8.93;;;29.40;37.70;;;;;;2257855;61;20401;-64
2022/08/18 02:51:47;0.00;0.00;0.62;0.00;0.00;0.62;13.57;12.37;;;29.40;37.80;;;;;;2257992;61;20699;-64
2022/08/18 02:54:34;0.00;0.00;0.62;0.00;0.00;0.62;12.10;11.03;;;29.40;37.80;;;;;;2257471;61;20627;-63
2022/08/18 02:57:22;0.00;0.00;0.62;0.00;0.00;0.62;10.33;9.43;;;29.30;37.70;;;;;;2257251;61;20379;-64
2022/08/18 03:00:11;0.00;0.00;0.62;0.00;0.00;0.62;10.50;9.60;;;29.30;37.70;;;;;;2257869;61;20410;-63
2022/08/18 03:02:56;0.00;0.00;0.62;0.00;0.00;0.62;9.13;8.30;;;29.30;37.70;;;;;;2257503;61;20474;-64
2022/08/18 03:05:42;0.00;0.00;0.62;0.00;0.00;0.62;8.63;7.93;;;29.30;37.60;;;;;;2256929;61;20367;-65
2022/08/18 03:08:31;0.00;0.00;0.62;0.00;0.00;0.62;9.37;8.50;;;29.30;37.60;;;;;;2257819;61;20366;-63
2022/08/18 03:11:18;0.00;0.00;0.62;0.00;0.00;0.62;12.63;10.93;;;29.40;37.70;;;;;;2257827;61;20774;-62
2022/08/18 03:14:05;0.00;0.00;0.62;0.00;0.00;0.62;10.83;9.90;;;29.40;37.70;;;;;;2257725;61;20422;-65
2022/08/18 03:16:50;0.00;0.00;0.62;0.00;0.00;0.62;11.03;9.80;;;29.40;37.60;;;;;;2257341;61;20716;-65
2022/08/18 03:19:35;0.00;0.00;0.62;0.00;0.00;0.62;9.67;8.87;;;29.40;37.60;;;;;;2257206;61;20612;-64
2022/08/18 03:22:24;0.00;0.00;0.62;0.00;0.00;0.62;8.30;7.60;;;29.40;37.60;;;;;;2257676;61;20687;-64
2022/08/18 03:25:09;0.00;0.00;0.62;0.00;0.00;0.62;9.70;8.90;;;29.40;37.50;;;;;;2257138;61;20445;-64
2022/08/18 03:27:54;0.00;0.00;0.62;0.00;0.00;0.62;8.53;7.73;;;29.40;37.50;;;;;;2257132;61;20739;-64
2022/08/18 03:30:38;0.00;0.00;0.62;0.00;0.00;0.62;6.97;6.43;;;29.40;37.40;;;;;;2257671;61;20755;-63
2022/08/18 03:33:23;0.00;0.00;0.62;0.00;0.00;0.62;9.43;8.00;;;29.50;37.50;;;;;;2257638;61;20378;-66
2022/08/18 03:36:12;0.00;0.00;0.62;0.00;0.00;0.62;12.93;11.63;;;29.50;37.40;;;;;;2257609;61;20478;-63
2022/08/18 03:39:03;0.00;0.00;0.62;0.00;0.00;0.62;12.83;11.73;;;29.50;37.50;;;;;;2257454;61;20398;-63
2022/08/18 03:41:53;0.00;0.00;0.62;0.00;0.00;0.62;12.47;11.17;;;29.50;37.50;;;;;;2256256;61;20374;-64
2022/08/18 03:44:37;0.00;0.00;0.62;0.00;0.00;0.62;12.37;11.27;;;29.50;38.20;;;;;;2257431;61;20410;-63
2022/08/18 03:47:22;0.00;0.00;0.62;0.00;0.00;0.62;10.83;9.83;;;29.50;37.60;;;;;;2257672;61;20365;-61
2022/08/18 03:50:08;0.00;0.00;0.62;0.00;0.00;0.62;9.17;8.37;;;29.50;37.60;;;;;;2257032;61;20366;-64
2022/08/18 03:52:58;0.00;0.00;0.62;0.00;0.00;0.62;9.17;8.37;;;29.50;37.60;;;;;;2257534;61;20380;-67
2022/08/18 03:55:44;0.00;0.00;0.62;0.00;0.00;0.62;8.37;7.57;;;29.50;37.50;;;;;;2257558;61;20352;-65
2022/08/18 03:58:30;0.00;0.00;0.62;0.00;0.00;0.62;8.47;7.77;;;29.50;37.40;;;;;;2257698;61;20382;-65
2022/08/18 04:01:18;0.00;0.00;0.62;0.00;0.00;0.62;9.07;8.27;;;29.50;37.40;;;;;;2257762;61;20401;-63
2022/08/18 04:04:07;0.00;0.00;0.62;0.00;0.00;0.62;8.63;7.83;;;29.50;37.40;;;;;;2256969;61;20395;-64
2022/08/18 04:06:56;0.00;0.00;0.62;0.00;0.00;0.62;8.57;7.67;;;29.50;37.30;;;;;;2257601;61;20363;-66
2022/08/18 04:09:41;0.00;0.00;0.62;0.00;0.00;0.62;8.27;7.47;;;29.50;37.30;;;;;;2257707;61;20359;-64
2022/08/18 04:12:29;0.00;0.00;0.62;0.00;0.00;0.62;8.43;7.73;;;29.50;37.30;;;;;;2256981;61;20374;-67
2022/08/18 04:15:14;0.00;0.00;0.62;0.00;0.00;0.62;8.03;7.40;;;29.60;37.30;;;;;;2257678;61;20367;-62
2022/08/18 04:17:59;0.00;0.00;0.62;0.00;0.00;0.62;8.20;7.50;;;29.60;37.30;;;;;;2257704;61;20363;-62
2022/08/18 04:20:45;0.00;0.00;0.62;0.00;0.00;0.62;8.40;7.70;;;29.60;37.30;;;;;;2257578;61;20382;-63
2022/08/18 04:23:30;0.00;0.00;0.62;0.00;0.00;0.62;11.03;10.13;;;29.60;37.20;;;;;;2257617;61;20449;-62
2022/08/18 04:26:17;0.00;0.00;0.62;0.00;0.00;0.62;10.50;9.50;;;29.60;37.10;;;;;;2256489;61;20370;-66
2022/08/18 04:29:07;0.00;0.00;0.62;0.00;0.00;0.62;12.43;11.23;;;29.70;37.10;;;;;;2257649;61;20367;-63
2022/08/18 04:31:53;0.00;0.00;0.62;0.00;0.00;0.62;13.30;12.10;;;29.60;37.00;;;;;;2257765;61;20374;-66
2022/08/18 04:34:38;0.00;0.00;0.62;0.00;0.00;0.62;9.97;9.07;;;29.50;37.00;;;;;;2257081;61;20651;-61
2022/08/18 04:37:23;0.00;0.00;0.62;0.00;0.00;0.62;10.50;9.60;;;29.50;37.00;;;;;;2257986;61;20374;-61
2022/08/18 04:40:09;0.00;0.00;0.62;0.00;0.00;0.62;12.50;11.30;;;29.50;37.10;;;;;;2257643;61;20427;-66
2022/08/18 04:42:54;0.00;0.00;0.62;0.00;0.00;0.62;11.23;10.23;;;29.40;37.10;;;;;;2257590;61;20398;-68
2022/08/18 04:45:41;0.00;0.00;0.62;0.00;0.00;0.62;9.37;8.57;;;29.30;37.10;;;;;;2257774;61;20363;-64
2022/08/18 04:48:25;0.00;0.00;0.62;0.00;0.00;0.62;11.60;10.40;;;29.30;37.20;;;;;;2256891;61;20690;-66
2022/08/18 04:51:13;0.00;0.00;0.62;0.00;0.00;0.62;10.00;9.10;;;29.20;37.20;;;;;;2257710;61;20586;-65
2022/08/18 04:53:59;0.00;0.00;0.62;0.00;0.00;0.62;10.80;9.90;;;29.20;37.20;;;;;;2257431;61;20374;-62
2022/08/18 04:56:44;0.00;0.00;0.62;0.00;0.00;0.62;10.80;9.90;;;29.10;37.30;;;;;;2256928;61;20604;-63
2022/08/18 04:59:29;0.00;0.00;0.62;0.00;0.00;0.62;10.93;10.00;;;29.10;37.30;;;;;;2257497;61;20660;-64
2022/08/18 05:02:17;0.00;0.00;0.62;0.00;0.00;0.62;8.67;7.93;;;29.00;37.40;;;;;;2257505;61;20397;-61
2022/08/18 05:05:03;0.00;0.00;0.62;0.00;0.00;0.62;9.60;8.63;;;29.00;37.50;;;;;;2257573;61;20382;-64
2022/08/18 05:07:48;0.00;0.00;0.62;0.00;0.00;0.62;8.40;7.60;;;29.00;37.60;;;;;;2257489;61;20409;-64
2022/08/18 05:10:34;0.00;0.00;0.62;0.00;0.00;0.62;8.53;7.70;;;28.90;37.60;;;;;;2256719;61;20402;-65
2022/08/18 05:13:19;0.00;0.00;0.62;0.00;0.00;0.62;9.80;8.40;;;28.90;37.70;;;;;;2257486;61;20377;-63
2022/08/18 05:16:05;0.00;0.00;0.62;0.00;0.00;0.62;7.27;6.50;;;28.90;37.70;;;;;;2257256;61;20362;-66
2022/08/18 05:18:55;0.00;0.00;0.62;0.00;0.00;0.62;11.50;10.30;;;28.90;37.80;;;;;;2256691;61;20363;-65
2022/08/18 05:21:40;0.00;0.00;0.62;0.00;0.00;0.62;10.93;9.90;;;28.90;37.80;;;;;;2257556;61;20429;-64
2022/08/18 05:24:28;0.00;0.00;0.62;0.00;0.00;0.62;10.20;9.20;;;28.80;37.80;;;;;;2257359;61;20463;-63
2022/08/18 05:27:13;0.00;0.00;0.62;0.00;0.00;0.62;8.50;7.80;;;28.80;37.80;;;;;;2257454;61;20362;-65
2022/08/18 05:29:58;0.00;0.00;0.62;0.00;0.00;0.62;11.60;10.27;;;28.80;37.90;;;;;;2258115;61;20359;-66
2022/08/18 05:32:45;0.00;0.00;0.62;0.00;0.00;0.62;8.37;7.57;;;28.80;38.00;;;;;;2257421;61;20371;-63
2022/08/18 05:35:38;0.00;0.00;0.62;0.00;0.00;0.62;7.97;7.27;;;28.70;38.10;;;;;;2258200;61;20723;-65
2022/08/18 05:38:38;0.00;0.00;0.62;0.00;0.00;0.62;10.33;9.33;;;28.80;38.10;;;;;;2258052;61;20731;-65
2022/08/18 05:41:28;0.00;0.00;0.62;0.00;0.00;0.62;12.70;11.50;;;28.70;38.10;;;;;;2257617;61;20518;-63
2022/08/18 05:44:17;0.00;0.00;0.62;0.00;0.00;0.62;11.13;10.03;;;28.70;38.20;;;;;;2257982;61;20418;-63
2022/08/18 05:47:06;0.00;0.00;0.62;0.00;0.00;0.62;10.40;9.40;;;28.80;38.30;;;;;;2257308;61;20390;-62
2022/08/18 05:49:52;0.00;0.00;0.62;0.00;0.00;0.62;11.13;10.03;;;28.70;38.40;;;;;;2258192;61;20413;-65
2022/08/18 05:52:44;0.00;0.00;0.62;0.00;0.00;0.62;9.37;8.57;;;28.70;38.40;;;;;;2257978;61;20483;-64
2022/08/18 05:58:48;0.00;0.00;0.62;0.00;0.00;0.62;8.57;7.77;;;28.70;38.50;;;;;;2258065;61;20580;-61
2022/08/18 06:01:40;0.00;0.00;0.62;0.00;0.00;0.62;9.10;8.30;;;28.70;38.50;;;;;;2258174;61;20432;-63
2022/08/18 06:04:40;0.00;0.00;0.62;0.00;0.00;0.62;10.40;9.47;;;28.70;38.50;;;;;;2258550;61;20460;-65
2022/08/18 06:07:33;0.00;0.00;0.62;0.00;0.00;0.62;11.33;10.13;;;28.70;38.50;;;;;;2258688;61;20394;-64
2022/08/18 06:10:20;0.00;0.00;0.62;0.00;0.00;0.62;12.33;11.03;;;28.70;38.60;;;;;;2257977;61;20402;-63
2022/08/18 06:13:09;0.00;0.00;0.62;0.00;0.00;0.62;9.63;8.73;;;28.70;38.60;;;;;;2258144;61;20454;-63
2022/08/18 06:16:04;0.00;0.00;0.62;0.00;0.00;0.62;9.67;8.67;;;28.70;38.60;;;;;;2258274;61;20766;-64
2022/08/18 06:18:59;0.00;0.00;0.62;0.00;0.00;0.62;10.50;8.77;;;28.70;38.60;;;;;;2257545;61;20410;-66
2022/08/18 06:21:52;0.00;0.00;0.62;0.00;0.00;0.62;11.87;10.70;;;28.70;38.70;;;;;;2258095;61;20723;-62
2022/08/18 06:24:48;0.00;0.00;0.62;0.00;0.00;0.62;8.40;7.70;;;28.70;38.70;;;;;;2257238;61;20414;-64
2022/08/18 06:27:43;0.00;0.00;0.62;0.00;0.00;0.62;11.63;10.53;;;28.80;38.80;;;;;;2258004;61;20394;-65
2022/08/18 06:30:46;0.00;0.00;0.62;0.00;0.00;0.62;14.43;13.03;;;28.80;38.70;;;;;;2258051;61;20367;-65
2022/08/18 06:33:49;0.00;0.00;0.62;0.00;0.00;0.62;10.80;9.70;;;28.80;38.80;;;;;;2256946;61;20373;-63
2022/08/18 06:36:51;0.00;0.00;0.62;0.00;0.00;0.62;10.47;9.57;;;28.80;38.80;;;;;;2254696;61;20427;-64
2022/08/18 06:39:48;0.00;0.00;0.62;0.00;0.00;0.62;14.83;13.33;;;28.80;38.80;;;;;;2257353;61;20695;-67
2022/08/18 06:42:34;0.00;0.00;0.62;0.00;0.00;0.62;15.37;13.87;;;28.80;38.80;;;;;;2257907;61;20382;-65
2022/08/18 06:45:27;0.00;0.00;0.62;0.00;0.00;0.62;19.70;17.13;;;28.80;38.80;;;;;;2258035;61;20471;-70
2022/08/18 06:48:22;0.00;0.00;0.62;0.00;0.00;0.62;19.97;17.97;;;28.80;38.90;;;;;;2257039;61;20359;-62
2022/08/18 06:51:11;0.00;0.00;0.62;0.00;0.00;0.62;23.30;20.80;;;28.80;38.90;;;;;;2258202;61;20759;-68
2022/08/18 06:54:00;0.00;0.00;0.62;0.00;0.00;0.62;23.00;20.70;;;28.80;38.90;;;;;;2256898;61;20437;-70
2022/08/18 06:56:50;0.00;0.00;0.62;0.00;0.00;0.62;20.07;18.10;;;28.80;39.10;;;;;;2258050;61;20739;-66
2022/08/18 06:59:37;0.00;0.00;0.62;0.00;0.00;0.62;23.57;21.27;;;28.80;39.10;;;;;;2258006;61;20732;-70
2022/08/18 07:02:42;0.00;0.00;0.62;0.00;0.00;0.62;21.93;19.83;;;28.70;39.10;;;;;;2257162;61;20387;-69
2022/08/18 07:05:29;0.00;0.00;0.62;0.00;0.00;0.62;22.10;19.90;;;28.70;39.10;;;;;;2258042;61;20402;-70
2022/08/18 07:08:20;0.00;0.00;0.62;0.00;0.00;0.62;21.83;19.80;;;28.70;39.00;;;;;;2257263;61;20375;-70
2022/08/18 07:11:21;0.00;0.00;0.62;0.00;0.00;0.62;23.53;21.13;;;28.70;39.10;;;;;;2257707;61;20572;-70
2022/08/18 07:14:20;0.00;0.00;0.62;0.00;0.00;0.62;22.67;20.33;;;28.70;39.10;;;;;;2257777;61;20424;-69
2022/08/18 07:17:09;0.00;0.00;0.62;0.00;0.00;0.62;25.10;22.57;;;28.70;39.20;;;;;;2257136;61;20451;-70
2022/08/18 07:20:07;0.00;0.00;0.62;0.00;0.00;0.62;28.50;25.60;;;28.70;39.20;;;;;;2258008;61;20485;-69
2022/08/18 07:22:57;0.00;0.00;0.62;0.00;0.00;0.62;31.00;27.80;;;28.70;39.20;;;;;;2257688;61;20630;-69
2022/08/18 07:25:45;0.00;0.00;0.62;0.00;0.00;0.62;31.60;27.50;;;28.60;39.20;;;;;;2257705;61;20386;-68
2022/08/18 07:28:35;0.00;0.00;0.62;0.00;0.00;0.62;28.93;25.80;;;28.60;39.20;;;;;;2258344;61;20370;-66
2022/08/18 07:31:37;0.00;0.00;0.62;0.00;0.00;0.62;27.00;24.20;;;28.60;39.20;;;;;;2257138;61;20367;-69
2022/08/18 07:34:32;0.00;0.00;0.62;0.00;0.00;0.62;23.47;21.10;;;28.60;39.20;;;;;;2257857;61;20723;-68
2022/08/18 07:37:22;0.00;0.00;0.62;0.00;0.00;0.62;26.53;23.90;;;28.50;39.20;;;;;;2260048;61;20369;-72
2022/08/18 07:40:22;0.00;0.00;0.62;0.00;0.00;0.62;26.33;23.73;;;28.50;39.30;;;;;;2261420;61;20604;-63
2022/08/18 07:43:16;0.00;0.00;0.62;0.00;0.00;0.62;22.70;20.27;;;28.50;39.30;;;;;;2259581;61;20430;-68
2022/08/18 07:46:16;0.00;0.00;0.62;0.00;0.00;0.62;18.40;16.60;;;28.50;39.30;;;;;;2256924;61;20438;-67
2022/08/18 07:49:01;0.00;0.00;0.62;0.00;0.00;0.62;21.47;18.53;;;28.40;39.20;;;;;;2261996;61;20354;-68
2022/08/18 07:51:55;0.00;0.00;0.62;0.00;0.00;0.62;19.90;17.60;;;28.40;39.20;;;;;;2261780;61;20401;-66
2022/08/18 07:54:53;0.00;0.00;0.62;0.00;0.00;0.62;22.93;20.40;;;28.40;39.30;;;;;;2261379;61;20366;-70
2022/08/18 07:57:46;0.00;0.00;0.62;0.00;0.00;0.62;22.00;19.70;;;28.40;39.30;;;;;;2261258;61;20420;-69
2022/08/18 08:00:41;0.00;0.00;0.62;0.00;0.00;0.62;31.37;25.33;;;28.40;39.30;;;;;;2261281;61;20357;-68
2022/08/18 08:03:41;0.00;0.00;0.62;0.00;0.00;0.62;30.10;24.60;;;28.40;39.40;;;;;;2261987;61;20437;-70
2022/08/18 08:06:36;0.00;0.00;0.62;0.00;0.00;0.62;28.17;24.23;;;28.40;39.50;;;;;;2260930;61;20366;-69
2022/08/18 08:09:35;0.00;0.00;0.62;0.00;0.00;0.62;27.70;24.60;;;28.40;39.60;;;;;;2261458;61;20438;-69
2022/08/18 08:12:31;0.00;0.00;0.62;0.00;0.00;0.62;24.33;21.73;;;28.40;39.50;;;;;;2261801;61;20432;-69
2022/08/18 08:15:24;0.00;0.00;0.62;0.00;0.00;0.62;28.73;24.97;;;28.40;39.60;;;;;;2261146;61;20353;-70
2022/08/18 08:18:16;0.00;0.00;0.62;0.00;0.00;0.62;30.13;26.83;;;28.40;39.50;;;;;;2278137;58;20495;-67
2022/08/18 08:21:07;0.00;0.00;0.62;0.00;0.00;0.62;25.63;22.03;;;28.40;39.40;;;;;;2257840;61;20358;-64
2022/08/18 08:24:07;0.00;0.00;0.62;0.00;0.00;0.62;24.27;21.47;;;28.40;39.40;;;;;;2257208;61;20418;-66
2022/08/18 08:27:04;0.00;0.00;0.62;0.00;0.00;0.62;24.43;21.87;;;28.40;39.30;;;;;;2257221;61;20417;-64
2022/08/18 08:30:00;0.00;0.00;0.62;0.00;0.00;0.62;24.10;21.50;;;28.40;39.30;;;;;;2257118;61;20742;-71
2022/08/18 08:33:09;0.00;0.00;0.62;0.00;0.00;0.62;24.17;21.57;;;28.40;39.20;;;;;;2257787;61;20386;-67
2022/08/18 08:36:03;0.00;0.00;0.62;0.00;0.00;0.62;24.50;21.87;;;28.40;39.20;;;;;;2257501;61;20413;-65
2022/08/18 08:38:55;0.00;0.00;0.62;0.00;0.00;0.62;24.70;20.00;;;28.40;39.10;;;;;;2261199;61;20577;-63
2022/08/18 08:41:48;0.00;0.00;0.62;0.00;0.00;0.62;21.00;18.80;;;28.40;39.10;;;;;;2261876;61;20358;-65
2022/08/18 08:44:46;0.00;0.00;0.62;0.00;0.00;0.62;18.03;16.23;;;28.40;39.00;;;;;;2258010;61;20382;-69
2022/08/18 08:47:37;0.00;0.00;0.62;0.00;0.00;0.62;21.90;19.60;;;28.40;39.10;;;;;;2261740;61;20346;-66
2022/08/18 08:50:25;0.00;0.00;0.62;0.00;0.00;0.62;21.33;19.20;;;28.50;39.20;;;;;;2261729;61;20358;-69
2022/08/18 08:53:19;0.00;0.00;0.62;0.00;0.00;0.62;22.63;20.30;;;28.50;39.20;;;;;;2261001;61;20417;-61
2022/08/18 08:56:12;0.00;0.00;0.62;0.00;0.00;0.62;18.97;17.03;;;28.50;39.30;;;;;;2261637;61;20374;-63
2022/08/18 08:59:00;0.00;0.00;0.62;0.00;0.00;0.62;21.30;19.10;;;28.50;39.30;;;;;;2258599;61;20369;-66
2022/08/18 09:01:57;0.00;0.00;0.62;0.00;0.00;0.62;18.53;16.67;;;28.50;39.30;;;;;;2261658;61;20358;-63
2022/08/18 09:04:54;0.00;0.00;0.62;0.00;0.00;0.62;18.00;16.07;;;28.50;39.20;;;;;;2261730;61;20383;-65
2022/08/18 09:08:01;0.00;0.00;0.62;0.00;0.00;0.62;20.30;17.80;;;28.50;39.20;;;;;;2261009;61;20358;-64
2022/08/18 09:11:15;0.00;0.00;0.62;0.00;0.00;0.62;19.93;17.93;;;28.60;39.20;;;;;;2261821;61;20427;-65
2022/08/18 09:14:50;0.00;0.00;0.62;0.00;0.00;0.62;20.10;18.00;;;28.60;39.20;;;;;;2261406;61;20424;-67
2022/08/18 09:17:58;0.00;0.00;0.62;0.00;0.00;0.62;19.03;17.20;;;28.60;39.20;;;;;;2258806;61;20375;-63
2022/08/18 09:21:02;0.00;0.00;0.62;0.00;0.00;0.62;19.43;16.33;;;28.60;39.10;;;;;;2257750;61;20395;-63
2022/08/18 09:23:54;0.00;0.00;0.62;0.00;0.00;0.62;16.07;14.37;;;28.60;39.10;;;;;;2257072;61;20391;-64
2022/08/18 09:26:51;0.00;0.00;0.62;0.00;0.00;0.62;17.60;15.80;;;28.70;39.10;;;;;;2257613;61;20402;-64
2022/08/18 09:29:50;0.00;0.00;0.62;0.00;0.00;0.62;15.90;14.40;;;28.60;39.10;;;;;;2257015;61;20824;-65
2022/08/18 09:32:55;0.00;0.00;0.62;0.00;0.00;0.62;14.80;13.37;;;28.70;39.10;;;;;;2257649;61;20426;-64
2022/08/18 09:35:58;0.00;0.00;0.62;0.00;0.00;0.62;16.13;14.03;;;28.70;39.10;;;;;;2257513;61;20371;-66
2022/08/18 09:42:04;0.00;0.00;0.62;0.00;0.00;0.62;15.77;14.27;;;28.70;39.00;;;;;;2257626;61;20738;-66
2022/08/18 09:45:04;0.00;0.00;0.62;0.00;0.00;0.62;12.57;11.37;;;28.80;38.90;;;;;;2253838;61;20399;-65
2022/08/18 09:48:28;0.00;0.00;0.62;0.00;0.00;0.62;14.13;12.93;;;28.80;38.90;;;;;;2257556;61;20719;-66
2022/08/18 09:51:36;0.00;0.00;0.62;0.00;0.00;0.62;16.23;14.67;;;28.90;38.90;;;;;;2256989;61;20587;-65
2022/08/18 09:54:23;0.00;0.00;0.62;0.00;0.00;0.62;14.03;12.53;;;28.90;38.80;;;;;;2257527;61;20354;-67
2022/08/18 09:57:24;0.00;0.00;0.62;0.00;0.00;0.62;14.53;13.23;;;28.90;38.80;;;;;;2257487;61;20395;-63
2022/08/18 10:00:30;0.00;0.00;0.62;0.00;0.00;0.62;12.23;11.13;;;28.90;38.80;;;;;;2257026;61;20359;-65
2022/08/18 10:03:26;0.00;0.00;0.62;0.00;0.00;0.62;11.77;10.73;;;29.00;38.80;;;;;;2257533;61;20815;-61
2022/08/18 10:06:18;0.00;0.00;0.62;0.00;0.00;0.62;13.67;12.33;;;29.00;39.40;;;;;;2257286;61;20534;-70
2022/08/18 10:09:35;0.00;0.00;0.62;0.00;0.00;0.62;11.30;10.20;;;29.00;38.80;;;;;;2257568;61;20859;-66
2022/08/18 10:12:51;0.00;0.00;0.62;0.00;0.00;0.62;12.90;11.67;;;29.10;38.70;;;;;;2257694;61;20378;-63
2022/08/18 10:16:01;0.00;0.00;0.62;0.00;0.00;0.62;13.37;12.07;;;29.10;38.70;;;;;;2257712;61;20354;-62
2022/08/18 10:19:10;0.00;0.00;0.62;0.00;0.00;0.62;14.50;13.10;;;29.10;38.60;;;;;;2488191;53;20356;-66
2022/08/18 10:22:07;0.00;0.00;0.62;0.00;0.00;0.62;14.43;12.93;;;29.20;38.50;;;;;;2253531;61;20360;-68
2022/08/18 10:24:55;0.00;0.00;0.62;0.00;0.00;0.62;14.60;13.20;;;29.20;39.10;;;;;;2254207;61;20764;-65
2022/08/18 10:27:51;0.00;0.00;0.62;0.00;0.00;0.62;16.17;14.60;;;29.20;38.40;;;;;;2253753;61;20425;-65
2022/08/18 10:31:04;0.00;0.00;0.62;0.00;0.00;0.62;13.30;12.10;;;29.20;38.40;;;;;;2254133;61;20744;-65
2022/08/18 10:34:06;0.00;0.00;0.62;0.00;0.00;0.62;13.20;12.00;;;29.20;38.40;;;;;;2254147;61;20384;-67
2022/08/18 10:36:53;0.00;0.00;0.62;0.00;0.00;0.62;13.17;11.97;;;29.20;38.40;;;;;;2253455;61;20391;-68
2022/08/18 10:39:47;0.00;0.00;0.62;0.00;0.00;0.62;11.10;10.10;;;29.30;38.40;;;;;;2254104;61;20396;-65
2022/08/18 10:42:39;0.00;0.00;0.62;0.00;0.00;0.62;14.90;13.40;;;29.30;38.40;;;;;;2254266;61;20764;-64
2022/08/18 10:45:29;0.00;0.00;0.62;0.00;0.00;0.62;12.87;11.57;;;29.40;38.20;;;;;;2254133;61;20372;-65
2022/08/18 10:48:21;0.00;0.00;0.62;0.00;0.00;0.62;12.37;11.03;;;29.40;38.10;;;;;;2254230;61;20360;-62
2022/08/18 10:51:15;0.00;0.00;0.62;0.00;0.00;0.62;12.10;10.80;;;29.40;38.10;;;;;;2253468;61;20364;-61
2022/08/18 10:54:11;0.00;0.00;0.62;0.00;0.00;0.62;12.93;11.67;;;29.40;38.00;;;;;;2253711;61;20752;-66
2022/08/18 10:57:09;0.00;0.00;0.62;0.00;0.00;0.62;13.00;11.13;;;29.40;38.00;;;;;;2254083;61;20418;-66
2022/08/18 11:00:01;0.00;0.00;0.62;0.00;0.00;0.62;10.83;9.73;;;29.50;38.00;;;;;;2253527;61;20608;-63
2022/08/18 11:03:07;0.00;0.00;0.62;0.00;0.00;0.62;9.67;8.80;;;29.50;38.00;;;;;;2254083;61;20419;-65
2022/08/18 11:06:03;0.00;0.00;0.62;0.00;0.00;0.62;9.90;9.10;;;29.50;38.00;;;;;;2253213;61;20360;-64
2022/08/18 11:08:59;0.00;0.00;0.62;0.00;0.00;0.62;10.87;9.87;;;29.50;37.90;;;;;;2254135;61;20356;-65
2022/08/18 11:11:44;0.00;0.00;0.62;0.00;0.00;0.62;9.30;8.50;;;29.50;37.90;;;;;;2254055;61;20383;-64
2022/08/18 11:15:16;0.00;0.00;0.62;0.00;0.00;0.62;10.10;9.30;;;29.60;38.00;;;;;;2253510;61;20724;-64
2022/08/18 11:18:18;0.00;0.00;0.62;0.00;0.00;0.62;8.50;7.70;;;29.60;37.80;;;;;;2257632;61;20648;-65
2022/08/18 11:21:29;0.00;0.00;0.62;0.00;0.00;0.62;8.80;8.00;;;29.60;37.80;;;;;;2257403;61;20446;-60
2022/08/18 11:24:24;0.00;0.00;0.62;0.00;0.00;0.62;9.83;9.00;;;29.70;37.90;;;;;;2258032;61;20483;-66
2022/08/18 11:27:19;0.00;0.00;0.62;0.00;0.00;0.62;10.93;8.73;;;29.70;37.90;;;;;;2257711;61;20387;-64